Time;durP1;ratioP1;P1;durP2;ratioP2;P2;SDS_P1;SDS_P2;PMS_P1;PMS_P2;Temp;Humidity;BMP_temperature;BMP_pressure;BME280_temperature;BME280_humidity;BME280_pressure;Samples;Min_cycle;Max_cycle;Signal;HPM_P1;HPM_P2
2023/11/12 00:01:56;;;;;;;31.80;29.98;;;10.50;99.90;;;;;;5013689;28;20038;-72
2023/11/12 00:04:22;;;;;;;32.25;30.42;;;10.40;99.90;;;;;;5014552;28;20034;-73
2023/11/12 00:06:49;;;;;;;29.80;27.95;;;10.40;99.90;;;;;;5014089;28;20053;-72
2023/11/12 00:09:15;;;;;;;24.60;23.00;;;10.50;99.90;;;;;;5014235;28;20114;-72
2023/11/12 00:11:42;;;;;;;28.67;27.13;;;10.50;99.90;;;;;;5012828;28;20056;-72
2023/11/12 00:14:09;;;;;;;34.20;32.17;;;10.50;99.90;;;;;;5014349;28;20053;-72
2023/11/12 00:16:35;;;;;;;30.10;28.17;;;10.50;99.90;;;;;;5013033;28;20392;-72
2023/11/12 00:19:04;;;;;;;24.90;23.45;;;10.70;99.90;;;;;;5014266;28;20053;-72
2023/11/12 00:21:30;;;;;;;27.25;25.73;;;10.80;99.90;;;;;;5013841;28;20046;-72
2023/11/12 00:23:57;;;;;;;26.65;24.98;;;10.80;99.90;;;;;;5013774;28;20479;-72
2023/11/12 00:26:23;;;;;;;29.48;27.48;;;10.90;99.90;;;;;;5013714;28;20045;-72
2023/11/12 00:28:50;;;;;;;29.00;27.38;;;10.90;99.90;;;;;;5014380;28;20049;-72
2023/11/12 00:31:16;;;;;;;31.63;29.98;;;11.00;99.90;;;;;;5013002;28;20042;-72
2023/11/12 00:33:42;;;;;;;25.40;24.10;;;11.00;99.90;;;;;;5014077;28;20042;-72
2023/11/12 00:36:09;;;;;;;26.25;24.73;;;11.00;99.90;;;;;;5013598;28;20045;-72
2023/11/12 00:38:35;;;;;;;32.97;31.05;;;11.00;99.90;;;;;;5013863;28;20042;-72
2023/11/12 00:41:01;;;;;;;34.25;32.35;;;11.10;99.90;;;;;;5012169;28;20064;-72
2023/11/12 00:43:28;;;;;;;41.17;38.85;;;11.10;99.90;;;;;;5013868;28;20041;-73
2023/11/12 00:46:00;;;;;;;33.45;31.52;;;11.20;99.90;;;;;;5012979;28;20045;-72
2023/11/12 00:48:27;;;;;;;34.40;32.50;;;11.30;99.90;;;;;;5013073;28;20038;-72
2023/11/12 00:50:53;;;;;;;36.45;34.13;;;11.30;99.90;;;;;;5013150;28;20049;-72
2023/11/12 00:53:19;;;;;;;33.38;31.58;;;11.40;99.90;;;;;;5013171;28;20045;-72
2023/11/12 00:55:46;;;;;;;40.97;38.78;;;11.40;99.90;;;;;;5006835;28;20026;-72
2023/11/12 00:58:12;;;;;;;42.38;39.92;;;11.40;99.90;;;;;;4994063;28;20038;-72
2023/11/12 01:00:41;;;;;;;48.47;46.03;;;11.50;99.90;;;;;;4993141;28;20081;-72
2023/11/12 01:03:09;;;;;;;44.33;41.83;;;11.50;99.90;;;;;;4993899;28;20042;-72
2023/11/12 01:05:37;;;;;;;50.50;47.78;;;11.50;99.90;;;;;;4993497;28;20484;-72
2023/11/12 01:08:04;;;;;;;59.38;55.58;;;11.60;99.90;;;;;;4994221;28;20034;-72
2023/11/12 01:10:30;;;;;;;60.00;56.65;;;11.60;99.90;;;;;;4993406;28;20030;-72
2023/11/12 01:12:57;;;;;;;54.60;51.38;;;11.60;99.90;;;;;;4993501;28;20043;-72
2023/11/12 01:15:23;;;;;;;49.55;46.83;;;11.60;99.90;;;;;;4992836;28;20038;-73
2023/11/12 01:17:49;;;;;;;76.30;71.72;;;11.60;99.90;;;;;;4993880;28;20042;-72
2023/11/12 01:20:15;;;;;;;120.43;113.72;;;11.50;99.90;;;;;;4992841;28;20041;-72
2023/11/12 01:22:42;;;;;;;51.25;47.67;;;11.60;99.90;;;;;;4993725;28;20474;-72
2023/11/12 01:25:09;;;;;;;40.40;37.20;;;11.60;99.90;;;;;;4993183;28;20038;-72
2023/11/12 01:27:35;;;;;;;44.05;40.90;;;11.70;99.90;;;;;;4974473;28;20487;-72
2023/11/12 01:30:01;;;;;;;54.05;50.45;;;11.70;99.90;;;;;;4974131;28;20042;-72
2023/11/12 01:32:27;;;;;;;66.45;62.47;;;11.80;99.90;;;;;;4990461;28;20035;-71
2023/11/12 01:34:53;;;;;;;100.90;94.88;;;11.90;99.90;;;;;;4993270;28;20034;-72
2023/11/12 01:37:20;;;;;;;49.45;46.00;;;11.90;99.90;;;;;;4992992;28;20121;-72
2023/11/12 01:39:47;;;;;;;63.38;59.22;;;11.90;99.90;;;;;;4993682;28;20049;-72
2023/11/12 01:42:13;;;;;;;43.22;39.42;;;11.90;99.90;;;;;;4993090;28;20038;-72
2023/11/12 01:44:42;;;;;;;57.42;52.45;;;11.90;99.90;;;;;;4993220;28;20034;-72
2023/11/12 01:47:08;;;;;;;48.72;44.53;;;11.90;99.90;;;;;;4992743;28;20039;-72
2023/11/12 01:49:35;;;;;;;44.80;35.03;;;11.90;99.90;;;;;;4992820;28;20069;-72
2023/11/12 01:52:02;;;;;;;44.17;36.53;;;11.90;99.90;;;;;;4992644;28;20038;-72
2023/11/12 01:54:28;;;;;;;55.47;47.97;;;12.00;99.90;;;;;;4992961;28;20065;-72
2023/11/12 01:56:56;;;;;;;59.03;52.58;;;12.00;99.90;;;;;;5006724;28;20034;-72
2023/11/12 01:59:23;;;;;;;64.85;49.97;;;12.10;99.90;;;;;;5012573;28;20410;-72
2023/11/12 02:01:50;;;;;;;62.22;48.63;;;12.10;99.90;;;;;;5010278;28;20037;-72
2023/11/12 02:04:17;;;;;;;63.53;51.95;;;12.20;99.90;;;;;;5010478;28;20046;-72
2023/11/12 02:06:43;;;;;;;79.95;62.60;;;12.30;99.90;;;;;;5012109;28;20030;-72
2023/11/12 02:09:10;;;;;;;73.18;59.47;;;12.30;99.90;;;;;;5012528;28;20455;-71
2023/11/12 02:11:37;;;;;;;85.57;75.80;;;12.40;99.90;;;;;;5012013;28;20045;-72
2023/11/12 02:14:04;;;;;;;85.70;76.78;;;12.40;99.90;;;;;;5012327;28;20050;-71
2023/11/12 02:16:30;;;;;;;79.55;69.18;;;12.40;99.90;;;;;;5011693;28;20038;-72
2023/11/12 02:18:56;;;;;;;80.93;70.72;;;12.50;99.90;;;;;;5012251;28;20041;-72
2023/11/12 02:21:24;;;;;;;79.85;59.67;;;12.50;99.90;;;;;;5011789;28;20038;-72
2023/11/12 02:23:50;;;;;;;95.05;85.93;;;12.60;99.90;;;;;;5012039;28;20049;-72
2023/11/12 02:26:16;;;;;;;85.35;67.20;;;12.60;99.90;;;;;;5012055;28;20038;-72
2023/11/12 02:28:42;;;;;;;80.47;71.28;;;12.60;99.90;;;;;;5010861;28;20060;-72
2023/11/12 02:31:08;;;;;;;94.32;84.38;;;12.60;99.90;;;;;;5011337;28;20053;-72
2023/11/12 02:33:34;;;;;;;74.00;60.35;;;12.70;99.90;;;;;;5011669;28;20050;-72
2023/11/12 02:36:03;;;;;;;82.53;73.93;;;12.70;99.90;;;;;;5010397;28;20038;-72
2023/11/12 02:38:29;;;;;;;95.05;85.65;;;12.70;99.90;;;;;;5012404;28;20064;-72
2023/11/12 02:40:56;;;;;;;64.90;58.33;;;12.70;99.90;;;;;;5011649;28;20041;-72
2023/11/12 02:43:24;;;;;;;80.70;53.90;;;12.70;99.90;;;;;;5012216;28;20050;-72
2023/11/12 02:45:50;;;;;;;82.18;63.35;;;12.80;99.90;;;;;;5011308;28;20034;-72
2023/11/12 02:48:16;;;;;;;70.65;44.08;;;12.80;99.90;;;;;;5011820;28;20037;-72
2023/11/12 02:50:43;;;;;;;71.18;47.40;;;12.70;99.90;;;;;;5011619;28;20026;-72
2023/11/12 02:53:10;;;;;;;65.70;50.72;;;12.70;99.90;;;;;;5010884;28;20038;-72
2023/11/12 02:55:37;;;;;;;68.25;59.55;;;12.70;99.90;;;;;;5006681;28;20053;-72
2023/11/12 02:58:03;;;;;;;74.95;65.78;;;12.70;99.90;;;;;;4992747;28;20391;-72
2023/11/12 03:00:29;;;;;;;70.70;59.95;;;12.70;99.90;;;;;;4991799;28;20049;-72
2023/11/12 03:02:57;;;;;;;75.55;60.80;;;12.70;99.90;;;;;;4991007;28;20495;-72
2023/11/12 03:05:24;;;;;;;72.22;55.13;;;12.70;99.90;;;;;;4992590;28;20602;-72
2023/11/12 03:07:50;;;;;;;70.68;51.95;;;12.70;99.90;;;;;;4992693;28;20050;-72
2023/11/12 03:10:17;;;;;;;65.10;49.92;;;12.70;99.90;;;;;;4993133;28;20042;-72
2023/11/12 03:12:43;;;;;;;59.55;40.05;;;12.70;99.90;;;;;;4996086;28;20039;-72
2023/11/12 03:15:11;;;;;;;85.50;76.28;;;12.70;99.90;;;;;;4995093;28;20038;-72
2023/11/12 03:17:37;;;;;;;76.18;53.25;;;12.70;99.90;;;;;;4994370;28;20097;-71
2023/11/12 03:20:04;;;;;;;67.22;45.08;;;12.70;99.90;;;;;;4996290;28;20042;-72
2023/11/12 03:22:33;;;;;;;83.03;59.47;;;12.70;99.90;;;;;;4995679;28;20046;-72
2023/11/12 03:25:04;;;;;;;59.22;37.25;;;12.70;99.90;;;;;;4994678;28;20054;-72
2023/11/12 03:27:30;;;;;;;;;;;12.70;99.90;;;;;;4994724;28;20046;-72
2023/11/12 03:29:56;;;;;;;67.43;37.88;;;12.70;99.90;;;;;;4995596;28;19906;-72
2023/11/12 03:32:23;;;;;;;55.38;39.20;;;12.80;99.90;;;;;;4993247;28;20045;-72
2023/11/12 03:34:53;;;;;;;63.33;45.42;;;12.80;99.90;;;;;;4995611;28;20395;-72
2023/11/12 03:37:20;;;;;;;64.32;40.72;;;12.80;99.90;;;;;;4995429;28;20053;-71
2023/11/12 03:39:47;;;;;;;64.70;48.28;;;12.80;99.90;;;;;;4995612;28;20387;-71
2023/11/12 03:42:15;;;;;;;72.07;49.53;;;12.80;99.90;;;;;;4995589;28;20053;-72
2023/11/12 03:44:46;;;;;;;59.08;31.10;;;12.90;99.90;;;;;;4995627;28;20053;-72
2023/11/12 03:47:12;;;;;;;68.17;39.17;;;12.80;99.90;;;;;;4994198;28;20046;-72
2023/11/12 03:49:41;;;;;;;60.40;40.22;;;12.80;99.90;;;;;;4995466;28;20280;-72
2023/11/12 03:52:08;;;;;;;64.68;34.20;;;12.90;99.90;;;;;;4995085;28;20050;-72
2023/11/12 03:54:35;;;;;;;59.00;35.95;;;12.90;99.90;;;;;;4994161;28;20483;-72
2023/11/12 03:57:01;;;;;;;65.68;42.13;;;12.90;99.90;;;;;;5010077;28;20494;-73
2023/11/12 03:59:27;;;;;;;76.47;42.67;;;13.00;99.90;;;;;;5014650;28;20038;-72
2023/11/12 04:01:53;;;;;;;68.40;48.30;;;13.00;99.90;;;;;;5013299;28;20394;-72
2023/11/12 04:04:19;;;;;;;65.88;50.83;;;13.00;99.90;;;;;;5013448;28;20053;-72
2023/11/12 04:06:45;;;;;;;59.38;48.60;;;12.90;99.90;;;;;;5014055;28;20391;-72
2023/11/12 04:09:12;;;;;;;63.33;45.33;;;13.00;99.90;;;;;;5014498;28;20033;-72
2023/11/12 04:11:40;;;;;;;70.03;54.17;;;13.00;99.90;;;;;;5013967;28;20030;-72
2023/11/12 04:14:09;;;;;;;61.90;46.38;;;13.00;99.90;;;;;;5013754;28;20061;-72
2023/11/12 04:16:35;;;;;;;60.50;40.53;;;13.00;99.90;;;;;;5013017;28;20367;-72
2023/11/12 04:19:03;;;;;;;64.13;43.80;;;13.00;99.90;;;;;;5014175;28;20046;-72
2023/11/12 04:21:32;;;;;;;56.67;44.17;;;13.00;99.90;;;;;;5012476;28;20042;-72
2023/11/12 04:23:58;;;;;;;72.93;49.83;;;13.00;99.90;;;;;;5013972;28;20042;-72
2023/11/12 04:26:25;;;;;;;68.28;53.83;;;13.00;99.90;;;;;;5013571;28;20046;-72
2023/11/12 04:28:51;;;;;;;64.10;44.53;;;13.00;99.90;;;;;;5013915;28;20050;-72
2023/11/12 04:31:17;;;;;;;61.38;37.25;;;13.00;99.90;;;;;;5013237;28;20057;-72
2023/11/12 04:33:45;;;;;;;69.38;54.08;;;13.00;99.90;;;;;;5014091;28;20042;-72
2023/11/12 04:36:12;;;;;;;74.30;67.03;;;13.00;99.90;;;;;;5013827;28;20038;-72
2023/11/12 04:38:39;;;;;;;68.32;60.65;;;13.00;99.90;;;;;;5013841;28;20050;-72
2023/11/12 04:41:05;;;;;;;52.63;34.75;;;13.00;99.90;;;;;;5013607;28;20418;-72
2023/11/12 04:43:31;;;;;;;55.22;37.00;;;13.00;99.90;;;;;;5013693;28;20042;-72
2023/11/12 04:45:57;;;;;;;60.17;42.78;;;13.00;99.90;;;;;;5013031;28;20376;-72
2023/11/12 04:48:23;;;;;;;59.67;41.40;;;13.10;99.90;;;;;;5014005;28;20050;-72
2023/11/12 04:50:49;;;;;;;62.40;47.72;;;13.00;99.90;;;;;;5013417;28;20474;-72
2023/11/12 04:53:16;;;;;;;61.90;43.55;;;13.00;99.90;;;;;;5013594;28;20033;-72
2023/11/12 04:55:42;;;;;;;56.67;36.63;;;13.00;99.90;;;;;;5007499;28;20046;-72
2023/11/12 04:58:08;;;;;;;62.25;56.00;;;13.00;99.90;;;;;;4993765;28;20034;-72
2023/11/12 05:00:34;;;;;;;55.08;43.38;;;13.00;99.90;;;;;;4993483;28;20057;-72
2023/11/12 05:03:04;;;;;;;61.33;44.50;;;13.00;99.90;;;;;;4994194;28;20037;-72
2023/11/12 05:05:31;;;;;;;79.82;71.70;;;13.00;99.90;;;;;;4993809;28;20057;-72
2023/11/12 05:07:57;;;;;;;66.38;57.25;;;13.00;99.90;;;;;;4993994;28;20042;-72
2023/11/12 05:10:24;;;;;;;107.15;97.63;;;13.10;99.90;;;;;;4993511;28;20102;-72
2023/11/12 05:12:50;;;;;;;61.47;55.17;;;13.10;99.90;;;;;;4993464;28;20049;-72
2023/11/12 05:15:17;;;;;;;64.30;57.45;;;13.10;99.90;;;;;;4993168;28;20491;-72
2023/11/12 05:17:43;;;;;;;65.15;50.08;;;13.10;99.90;;;;;;4994143;28;20087;-72
2023/11/12 05:20:10;;;;;;;77.05;70.20;;;13.10;99.90;;;;;;4993327;28;20030;-73
2023/11/12 05:22:37;;;;;;;69.90;63.22;;;13.10;99.90;;;;;;4994068;28;20499;-72
2023/11/12 05:25:03;;;;;;;101.28;93.28;;;13.10;99.90;;;;;;4993780;28;20061;-72
2023/11/12 05:27:29;;;;;;;79.30;71.97;;;13.10;99.90;;;;;;4992916;28;20057;-72
2023/11/12 05:29:55;;;;;;;70.55;44.15;;;13.10;99.90;;;;;;4993444;28;20027;-72
2023/11/12 05:32:21;;;;;;;91.05;83.03;;;13.10;99.90;;;;;;4992629;28;20042;-72
2023/11/12 05:34:47;;;;;;;238.02;114.03;;;13.10;99.90;;;;;;4993159;28;20041;-72
2023/11/12 05:37:13;;;;;;;144.05;133.93;;;13.10;99.90;;;;;;4993059;28;20034;-72
2023/11/12 05:39:39;;;;;;;57.15;51.40;;;13.00;99.90;;;;;;4993569;28;20043;-72
2023/11/12 05:42:06;;;;;;;62.63;55.92;;;13.00;99.90;;;;;;4992616;28;20034;-72
2023/11/12 05:44:32;;;;;;;73.72;60.63;;;13.00;99.90;;;;;;4993165;28;20030;-72
2023/11/12 05:46:58;;;;;;;211.40;192.90;;;13.10;99.90;;;;;;4992770;28;20034;-72
2023/11/12 05:49:24;;;;;;;83.30;75.43;;;13.10;99.90;;;;;;4993131;28;20041;-72
2023/11/12 05:51:50;;;;;;;113.07;103.95;;;13.00;99.90;;;;;;4992751;28;20045;-72
2023/11/12 05:54:16;;;;;;;145.13;135.00;;;13.10;99.90;;;;;;4993121;28;20042;-72
2023/11/12 05:56:42;;;;;;;64.25;58.25;;;13.10;99.90;;;;;;5004931;28;20041;-72
2023/11/12 05:59:09;;;;;;;75.35;67.65;;;13.00;99.90;;;;;;5012755;28;20045;-72
2023/11/12 06:01:35;;;;;;;144.80;120.50;;;13.00;99.90;;;;;;5011651;28;20034;-72
2023/11/12 06:04:02;;;;;;;108.10;52.00;;;13.00;99.90;;;;;;5012716;28;20485;-72
2023/11/12 06:06:28;;;;;;;50.63;43.08;;;13.00;99.90;;;;;;5010912;28;20064;-72
2023/11/12 06:08:54;;;;;;;59.35;47.80;;;13.00;99.90;;;;;;5012634;28;20038;-72
2023/11/12 06:11:21;;;;;;;55.25;49.90;;;13.00;99.90;;;;;;5011617;28;20041;-72
2023/11/12 06:13:47;;;;;;;61.92;55.63;;;13.00;99.90;;;;;;5012518;28;20406;-71
2023/11/12 06:16:13;;;;;;;207.18;75.45;;;13.00;99.90;;;;;;5011463;28;20038;-72
2023/11/12 06:18:39;;;;;;;151.35;63.28;;;13.00;99.90;;;;;;5012377;28;20057;-72
2023/11/12 06:21:05;;;;;;;64.03;53.05;;;12.90;99.90;;;;;;5012019;28;20040;-72
2023/11/12 06:23:31;;;;;;;83.68;75.63;;;12.90;99.90;;;;;;5011236;28;20060;-72
2023/11/12 06:25:57;;;;;;;77.15;68.78;;;13.00;99.90;;;;;;5012105;28;20046;-72
2023/11/12 06:28:24;;;;;;;61.78;53.95;;;13.00;99.90;;;;;;5012484;28;20041;-72
2023/11/12 06:30:51;;;;;;;62.65;55.08;;;12.90;99.90;;;;;;5011449;28;20034;-72
2023/11/12 06:33:17;;;;;;;65.57;59.22;;;12.90;99.90;;;;;;5012417;28;20042;-72
2023/11/12 06:35:43;;;;;;;70.82;59.53;;;12.90;99.90;;;;;;5011890;28;20058;-72
2023/11/12 06:38:09;;;;;;;353.38;98.03;;;12.80;99.90;;;;;;5012293;28;20053;-72
2023/11/12 06:40:35;;;;;;;82.63;68.75;;;12.80;99.90;;;;;;5011855;28;20038;-71
2023/11/12 06:43:01;;;;;;;57.13;51.03;;;12.80;99.90;;;;;;5012214;28;20022;-72
2023/11/12 06:45:28;;;;;;;64.10;55.15;;;12.90;99.90;;;;;;5013034;28;20034;-72
2023/11/12 06:47:54;;;;;;;71.90;64.43;;;12.90;99.90;;;;;;5016100;28;20053;-69
2023/11/12 06:50:20;;;;;;;83.40;75.72;;;12.80;99.90;;;;;;5015956;28;20045;-69
2023/11/12 06:52:46;;;;;;;94.70;86.10;;;12.80;99.90;;;;;;5016121;28;20037;-69
2023/11/12 06:55:12;;;;;;;81.90;74.47;;;12.80;99.90;;;;;;5012265;28;20509;-69
2023/11/12 06:57:38;;;;;;;82.72;74.82;;;12.80;99.90;;;;;;4996400;28;20038;-69
2023/11/12 07:00:08;;;;;;;95.07;86.72;;;12.80;99.90;;;;;;4995819;28;20046;-69
2023/11/12 07:02:34;;;;;;;125.43;115.22;;;12.90;99.90;;;;;;4996254;28;20033;-69
2023/11/12 07:05:00;;;;;;;67.57;60.75;;;12.90;99.90;;;;;;4996150;28;20498;-69
2023/11/12 07:07:26;;;;;;;69.20;61.95;;;12.90;99.90;;;;;;4994954;28;20027;-69
2023/11/12 07:09:52;;;;;;;87.75;79.75;;;12.90;99.90;;;;;;4995773;28;20034;-69
2023/11/12 07:12:18;;;;;;;78.60;70.95;;;12.90;99.90;;;;;;4996006;28;20025;-69
2023/11/12 07:14:45;;;;;;;76.07;68.35;;;12.90;99.90;;;;;;4996067;28;20055;-69
2023/11/12 07:17:11;;;;;;;98.45;89.97;;;12.90;99.90;;;;;;4995798;28;20037;-69
2023/11/12 07:19:37;;;;;;;61.88;42.90;;;12.90;99.90;;;;;;4995990;28;20071;-70
2023/11/12 07:22:04;;;;;;;63.50;50.63;;;12.90;99.90;;;;;;4995624;28;20030;-69
2023/11/12 07:24:30;;;;;;;71.20;59.50;;;12.90;99.90;;;;;;4995458;28;20046;-69
2023/11/12 07:26:56;;;;;;;57.97;51.95;;;12.90;99.90;;;;;;4995639;28;20043;-69
2023/11/12 07:29:22;;;;;;;59.42;47.00;;;12.90;99.90;;;;;;4996070;28;20479;-69
2023/11/12 07:31:48;;;;;;;74.68;67.35;;;12.90;99.90;;;;;;4994947;28;20038;-69
2023/11/12 07:34:14;;;;;;;86.50;77.22;;;13.00;99.90;;;;;;4995605;28;20504;-69
2023/11/12 07:36:40;;;;;;;76.53;68.32;;;13.00;99.90;;;;;;4994178;28;20034;-69
2023/11/12 07:39:07;;;;;;;71.07;63.42;;;13.00;99.90;;;;;;4995381;28;20496;-69
2023/11/12 07:41:34;;;;;;;69.95;62.78;;;13.00;99.90;;;;;;4995283;28;20057;-69
2023/11/12 07:44:00;;;;;;;68.75;59.30;;;13.10;99.90;;;;;;4995556;28;20042;-69
2023/11/12 07:46:26;;;;;;;81.60;73.95;;;13.10;99.90;;;;;;4994902;28;20483;-68
2023/11/12 07:48:52;;;;;;;76.47;66.68;;;13.00;99.90;;;;;;4995587;28;20034;-69
2023/11/12 07:51:18;;;;;;;70.82;63.28;;;13.10;99.90;;;;;;4994605;28;20062;-72
2023/11/12 07:53:44;;;;;;;66.38;51.60;;;13.10;99.90;;;;;;4994853;28;20022;-71
2023/11/12 07:56:11;;;;;;;63.78;55.00;;;13.10;99.90;;;;;;5002801;28;20033;-72
2023/11/12 07:58:37;;;;;;;80.50;54.67;;;13.10;99.90;;;;;;5014705;28;20061;-72
2023/11/12 08:01:04;;;;;;;72.20;57.42;;;13.20;99.90;;;;;;5013846;28;20048;-72
2023/11/12 08:03:31;;;;;;;81.38;59.78;;;13.20;99.90;;;;;;5014489;28;20034;-72
2023/11/12 08:05:57;;;;;;;67.60;55.83;;;13.20;99.90;;;;;;5012960;28;20037;-72
2023/11/12 08:08:24;;;;;;;95.72;48.17;;;13.20;99.90;;;;;;5013138;28;20049;-72
2023/11/12 08:10:50;;;;;;;70.68;55.00;;;13.20;99.90;;;;;;5013878;28;20041;-72
2023/11/12 08:13:16;;;;;;;71.78;64.05;;;13.20;99.90;;;;;;5014400;28;20038;-72
2023/11/12 08:15:42;;;;;;;139.60;128.43;;;13.30;99.90;;;;;;5014010;28;20045;-72
2023/11/12 08:18:08;;;;;;;86.97;77.88;;;13.30;99.90;;;;;;5014390;28;20030;-72
2023/11/12 08:20:35;;;;;;;82.85;74.45;;;13.30;99.90;;;;;;5013425;28;20046;-72
2023/11/12 08:23:02;;;;;;;65.50;51.17;;;13.40;99.90;;;;;;5014438;28;20042;-72
2023/11/12 08:25:28;;;;;;;114.32;102.80;;;13.50;99.90;;;;;;5013583;28;20042;-72
2023/11/12 08:27:57;;;;;;;147.45;135.48;;;13.50;99.90;;;;;;5014449;28;20053;-72
2023/11/12 08:30:23;;;;;;;140.88;129.73;;;13.50;99.90;;;;;;5012918;28;20041;-72
2023/11/12 08:32:50;;;;;;;103.60;93.47;;;13.60;99.90;;;;;;5014295;28;20375;-71
2023/11/12 08:35:16;;;;;;;198.80;184.43;;;13.60;99.90;;;;;;5012849;28;20057;-71
2023/11/12 08:37:42;;;;;;;158.85;146.70;;;13.60;99.90;;;;;;5014189;28;20033;-72
2023/11/12 08:40:11;;;;;;;184.07;169.73;;;13.60;99.90;;;;;;5013899;28;20477;-72
2023/11/12 08:42:38;;;;;;;228.30;212.30;;;13.70;99.90;;;;;;5013786;28;20045;-71
2023/11/12 08:45:04;;;;;;;145.02;133.32;;;13.80;99.90;;;;;;5013598;28;20041;-71
2023/11/12 08:47:31;;;;;;;128.50;117.40;;;13.80;99.90;;;;;;5013575;28;20026;-71
2023/11/12 08:49:58;;;;;;;114.60;104.45;;;13.80;99.90;;;;;;5012225;28;20038;-72
2023/11/12 08:52:25;;;;;;;101.55;92.55;;;13.80;99.90;;;;;;5013692;28;20038;-72
2023/11/12 08:54:51;;;;;;;155.55;143.48;;;13.80;99.90;;;;;;5013422;28;20053;-72
2023/11/12 08:57:18;;;;;;;164.80;151.88;;;13.80;99.90;;;;;;4994779;28;20039;-72
2023/11/12 08:59:44;;;;;;;180.98;168.20;;;13.80;99.90;;;;;;4993131;28;20061;-72
2023/11/12 09:02:11;;;;;;;139.38;128.57;;;13.90;99.90;;;;;;4993374;28;20057;-71
2023/11/12 09:04:38;;;;;;;123.13;112.28;;;13.90;99.90;;;;;;4994000;28;20058;-72
2023/11/12 09:07:04;;;;;;;130.68;120.88;;;14.00;99.90;;;;;;4993873;28;20054;-71
2023/11/12 09:09:32;;;;;;;108.15;99.28;;;14.00;99.90;;;;;;4993172;28;20034;-72
2023/11/12 09:11:58;;;;;;;123.10;113.32;;;13.90;99.90;;;;;;4993391;28;20026;-71
2023/11/12 09:14:24;;;;;;;148.65;138.23;;;14.00;99.90;;;;;;4993605;28;20046;-71
2023/11/12 09:16:50;;;;;;;137.00;126.85;;;14.10;99.90;;;;;;4992902;28;20046;-71
2023/11/12 09:19:16;;;;;;;143.82;132.98;;;14.00;99.90;;;;;;4993176;28;20455;-72
2023/11/12 09:21:42;;;;;;;114.10;105.28;;;14.00;99.90;;;;;;4993575;28;20057;-72
2023/11/12 09:24:09;;;;;;;106.32;97.90;;;14.00;99.90;;;;;;4993417;28;20062;-71
2023/11/12 09:26:35;;;;;;;154.07;142.60;;;14.00;99.90;;;;;;4993636;28;20046;-71
2023/11/12 09:29:02;;;;;;;136.48;126.72;;;14.00;99.90;;;;;;4993595;28;20041;-72
2023/11/12 09:31:28;;;;;;;150.50;139.98;;;14.10;99.90;;;;;;4992832;28;20039;-72
2023/11/12 09:33:54;;;;;;;109.43;101.22;;;14.10;99.90;;;;;;4993192;28;20042;-72
2023/11/12 09:36:20;;;;;;;147.82;137.05;;;14.10;99.90;;;;;;4992931;28;20046;-72
2023/11/12 09:38:46;;;;;;;143.77;133.57;;;14.20;99.90;;;;;;4993759;28;20050;-72
2023/11/12 09:41:12;;;;;;;123.00;114.15;;;14.10;99.90;;;;;;4992997;28;20030;-71
2023/11/12 09:43:39;;;;;;;151.48;140.70;;;14.20;99.90;;;;;;4992064;28;20041;-72
2023/11/12 09:46:08;;;;;;;163.02;152.23;;;14.20;99.90;;;;;;4991246;28;20030;-72
2023/11/12 09:48:35;;;;;;;173.55;161.45;;;14.20;99.90;;;;;;4992754;28;20042;-71
2023/11/12 09:51:05;;;;;;;149.40;139.07;;;14.20;99.90;;;;;;4991849;28;20033;-72
2023/11/12 09:53:42;;;;;;;109.38;100.45;;;14.20;99.90;;;;;;4993751;28;20061;-71
2023/11/12 09:56:08;;;;;;;124.40;114.30;;;14.30;99.90;;;;;;5000093;28;20399;-72
2023/11/12 09:58:38;;;;;;;89.57;81.60;;;14.30;99.90;;;;;;5012648;28;20045;-71
2023/11/12 10:01:11;;;;;;;110.57;101.47;;;14.30;99.90;;;;;;5010416;28;20045;-71
2023/11/12 10:03:43;;;;;;;125.63;115.43;;;14.30;99.90;;;;;;5012248;28;20041;-72
2023/11/12 10:06:12;;;;;;;160.80;149.45;;;14.30;99.90;;;;;;5012121;28;20030;-72
2023/11/12 10:08:38;;;;;;;194.85;181.20;;;14.30;99.90;;;;;;5012398;28;20034;-71
2023/11/12 10:11:21;;;;;;;267.48;249.48;;;14.30;99.90;;;;;;5011753;28;20038;-71
2023/11/12 10:13:48;;;;;;;154.18;143.45;;;14.30;99.90;;;;;;5012710;28;20049;-71
2023/11/12 10:16:29;;;;;;;115.90;105.80;;;14.40;99.90;;;;;;5011577;28;20046;-71
2023/11/12 10:19:12;;;;;;;91.70;84.03;;;14.40;99.90;;;;;;5012595;28;20398;-72
2023/11/12 10:21:55;;;;;;;95.70;87.20;;;14.50;99.90;;;;;;5014877;28;20026;-72
2023/11/12 10:24:22;;;;;;;95.15;86.20;;;14.50;99.90;;;;;;5016841;28;20042;-72
2023/11/12 10:26:48;;;;;;;90.15;82.50;;;14.50;99.90;;;;;;5014865;28;20038;-72
2023/11/12 10:29:21;;;;;;;102.30;94.22;;;14.50;99.90;;;;;;5015113;28;20044;-71
2023/11/12 10:31:48;;;;;;;106.03;96.43;;;14.50;99.90;;;;;;5015104;28;20041;-71
2023/11/12 10:34:16;;;;;;;97.30;88.45;;;14.60;99.90;;;;;;5015179;28;20030;-72
2023/11/12 10:37:02;;;;;;;106.80;97.72;;;14.60;99.90;;;;;;5016005;28;20057;-72
2023/11/12 10:39:35;;;;;;;102.78;93.68;;;14.60;99.90;;;;;;5016076;28;20052;-72
2023/11/12 10:42:01;;;;;;;113.07;103.35;;;14.60;99.90;;;;;;5015713;28;20470;-72
2023/11/12 10:44:28;;;;;;;104.80;96.32;;;14.60;99.90;;;;;;5016189;28;20038;-71
2023/11/12 10:46:55;;;;;;;95.82;87.18;;;14.70;99.90;;;;;;5012796;28;20052;-71
2023/11/12 10:49:22;;;;;;;111.68;102.20;;;14.60;99.90;;;;;;5014793;28;20033;-71
2023/11/12 10:51:48;;;;;;;103.40;93.68;;;14.60;99.90;;;;;;5013910;28;20517;-71
2023/11/12 10:54:15;;;;;;;122.90;111.82;;;14.60;99.90;;;;;;5014799;28;20049;-71
2023/11/12 10:56:41;;;;;;;129.52;118.90;;;14.60;99.90;;;;;;5000423;28;20065;-72
2023/11/12 10:59:08;;;;;;;133.50;122.45;;;14.60;99.90;;;;;;4995393;28;20034;-71
2023/11/12 11:01:34;;;;;;;106.00;96.95;;;14.70;99.90;;;;;;4993635;28;20049;-72
2023/11/12 11:04:01;;;;;;;146.75;135.02;;;14.60;99.90;;;;;;4995154;28;20026;-72
2023/11/12 11:06:28;;;;;;;102.55;93.40;;;14.60;99.90;;;;;;4995871;28;20034;-71
2023/11/12 11:08:54;;;;;;;107.45;97.50;;;14.70;99.90;;;;;;4995139;28;20475;-71
2023/11/12 11:11:21;;;;;;;120.03;110.20;;;14.70;99.90;;;;;;4995985;28;20038;-72
2023/11/12 11:13:48;;;;;;;103.97;94.57;;;14.70;99.90;;;;;;4994910;28;20459;-70
2023/11/12 11:16:48;;;;;;;111.50;101.65;;;14.70;99.90;;;;;;4995029;28;20495;-71
2023/11/12 11:19:14;;;;;;;117.43;106.03;;;14.70;99.90;;;;;;4995966;28;20039;-72
2023/11/12 11:21:40;;;;;;;114.70;105.18;;;14.70;99.90;;;;;;4995776;28;20042;-72
2023/11/12 11:24:08;;;;;;;101.40;93.07;;;14.70;99.90;;;;;;4995673;28;20118;-71
2023/11/12 11:26:39;;;;;;;103.78;94.28;;;14.70;99.90;;;;;;4995670;28;20054;-72
2023/11/12 11:29:05;;;;;;;104.75;95.25;;;14.80;99.90;;;;;;4996019;28;20042;-71
2023/11/12 11:31:38;;;;;;;103.32;93.93;;;14.80;99.90;;;;;;4994106;28;20038;-71
2023/11/12 11:34:06;;;;;;;110.68;100.60;;;14.80;99.90;;;;;;4995743;28;20403;-72
2023/11/12 11:36:32;;;;;;;120.90;110.20;;;14.90;99.90;;;;;;4993936;28;20054;-71
2023/11/12 11:39:12;;;;;;;150.68;139.20;;;14.90;99.90;;;;;;4995743;28;20065;-71
2023/11/12 11:41:50;;;;;;;171.70;157.87;;;14.90;99.90;;;;;;4995292;28;20046;-72
2023/11/12 11:44:37;;;;;;;195.57;181.65;;;14.90;99.90;;;;;;4995115;28;20773;-72
2023/11/12 11:47:09;;;;;;;191.30;176.50;;;14.90;99.90;;;;;;4995022;28;20036;-71
2023/11/12 11:49:35;;;;;;;149.27;137.77;;;14.90;99.90;;;;;;4995761;28;20034;-71
2023/11/12 11:52:01;;;;;;;133.98;122.43;;;14.90;99.90;;;;;;4994913;28;20038;-72
2023/11/12 11:54:28;;;;;;;146.98;134.35;;;14.90;99.90;;;;;;4994008;28;20034;-71
2023/11/12 11:56:57;;;;;;;139.02;127.60;;;14.90;99.90;;;;;;5007161;28;20053;-71
2023/11/12 11:59:24;;;;;;;130.77;118.40;;;14.90;99.90;;;;;;5014598;28;20038;-72
2023/11/12 12:01:53;;;;;;;94.15;84.25;;;14.90;99.90;;;;;;4995654;28;20042;-71
2023/11/12 12:04:19;;;;;;;155.40;142.35;;;14.90;99.90;;;;;;5014886;28;20045;-71
2023/11/12 12:06:46;;;;;;;86.35;77.00;;;14.90;99.90;;;;;;5013023;28;20041;-71
2023/11/12 12:09:19;;;;;;;87.32;78.25;;;14.80;99.90;;;;;;5014700;28;20033;-72
2023/11/12 12:11:51;;;;;;;87.65;78.28;;;14.90;99.90;;;;;;5013943;28;20042;-72
2023/11/12 12:14:19;;;;;;;131.80;119.90;;;14.90;99.90;;;;;;5014152;28;20044;-72
2023/11/12 12:16:45;;;;;;;125.30;113.65;;;14.90;99.90;;;;;;5013022;28;20049;-71
2023/11/12 12:19:25;;;;;;;111.75;101.13;;;14.90;99.90;;;;;;5013141;28;20045;-72
2023/11/12 12:21:51;;;;;;;106.68;92.63;;;14.90;99.90;;;;;;5013764;28;20050;-72